sensor_id;sensor_type;location;lat;lon;timestamp;temperature;humidity
21115;DHT22;10715;48.546;9.896;2022-10-17T00:01:22;7.90;99.90
21115;DHT22;10715;48.546;9.896;2022-10-17T00:03:48;7.90;99.90
21115;DHT22;10715;48.546;9.896;2022-10-17T00:06:14;7.80;99.90
21115;DHT22;10715;48.546;9.896;2022-10-17T00:08:41;7.80;99.90
21115;DHT22;10715;48.546;9.896;2022-10-17T00:11:13;7.70;99.90
21115;DHT22;10715;48.546;9.896;2022-10-17T00:13:40;7.70;99.90
21115;DHT22;10715;48.546;9.896;2022-10-17T00:16:06;7.70;99.90
21115;DHT22;10715;48.546;9.896;2022-10-17T00:18:32;7.70;99.90
21115;DHT22;10715;48.546;9.896;2022-10-17T00:20:57;7.70;99.90
21115;DHT22;10715;48.546;9.896;2022-10-17T00:23:23;7.70;99.90
21115;DHT22;10715;48.546;9.896;2022-10-17T00:26:00;7.70;99.90
21115;DHT22;10715;48.546;9.896;2022-10-17T00:28:26;7.60;99.90
21115;DHT22;10715;48.546;9.896;2022-10-17T00:31:03;7.60;99.90
21115;DHT22;10715;48.546;9.896;2022-10-17T00:33:29;7.60;99.90
21115;DHT22;10715;48.546;9.896;2022-10-17T00:36:16;7.60;99.90
21115;DHT22;10715;48.546;9.896;2022-10-17T00:38:44;7.60;99.90
21115;DHT22;10715;48.546;9.896;2022-10-17T00:41:13;7.50;99.90
21115;DHT22;10715;48.546;9.896;2022-10-17T00:44:03;7.50;99.90
21115;DHT22;10715;48.546;9.896;2022-10-17T00:46:38;7.50;99.90
21115;DHT22;10715;48.546;9.896;2022-10-17T00:49:09;7.40;99.90
21115;DHT22;10715;48.546;9.896;2022-10-17T00:51:48;7.40;99.90
21115;DHT22;10715;48.546;9.896;2022-10-17T00:54:16;7.40;99.90
21115;DHT22;10715;48.546;9.896;2022-10-17T00:56:46;7.40;99.90
21115;DHT22;10715;48.546;9.896;2022-10-17T00:59:13;7.40;99.90
21115;DHT22;10715;48.546;9.896;2022-10-17T01:01:40;7.40;99.90
21115;DHT22;10715;48.546;9.896;2022-10-17T01:04:07;7.40;99.90
21115;DHT22;10715;48.546;9.896;2022-10-17T01:06:33;7.40;99.90
21115;DHT22;10715;48.546;9.896;2022-10-17T01:08:59;7.40;99.90
21115;DHT22;10715;48.546;9.896;2022-10-17T01:14:47;7.30;99.90
21115;DHT22;10715;48.546;9.896;2022-10-17T01:17:27;7.30;99.90
21115;DHT22;10715;48.546;9.896;2022-10-17T01:30:52;7.10;99.90
21115;DHT22;10715;48.546;9.896;2022-10-17T01:38:49;7.00;99.90
21115;DHT22;10715;48.546;9.896;2022-10-17T01:43:54;6.90;99.90
21115;DHT22;10715;48.546;9.896;2022-10-17T01:48:59;6.90;99.90
21115;DHT22;10715;48.546;9.896;2022-10-17T01:51:32;6.90;99.90
21115;DHT22;10715;48.546;9.896;2022-10-17T01:56:31;6.90;99.90
21115;DHT22;10715;48.546;9.896;2022-10-17T01:59:03;6.80;99.90
21115;DHT22;10715;48.546;9.896;2022-10-17T02:01:31;6.80;99.90
21115;DHT22;10715;48.546;9.896;2022-10-17T02:03:59;6.80;99.90
21115;DHT22;10715;48.546;9.896;2022-10-17T02:06:25;6.80;99.90
21115;DHT22;10715;48.546;9.896;2022-10-17T02:08:51;6.70;99.90
21115;DHT22;10715;48.546;9.896;2022-10-17T02:11:26;6.80;99.90
21115;DHT22;10715;48.546;9.896;2022-10-17T02:16:44;6.70;99.90
21115;DHT22;10715;48.546;9.896;2022-10-17T02:19:23;6.70;99.90
21115;DHT22;10715;48.546;9.896;2022-10-17T02:29:46;6.70;99.90
21115;DHT22;10715;48.546;9.896;2022-10-17T02:32:20;6.60;99.90
21115;DHT22;10715;48.546;9.896;2022-10-17T02:34:52;6.60;99.90
21115;DHT22;10715;48.546;9.896;2022-10-17T02:37:24;6.60;99.90
21115;DHT22;10715;48.546;9.896;2022-10-17T02:39:51;6.60;99.90
21115;DHT22;10715;48.546;9.896;2022-10-17T02:42:19;6.50;99.90
21115;DHT22;10715;48.546;9.896;2022-10-17T02:44:46;6.60;99.90
21115;DHT22;10715;48.546;9.896;2022-10-17T02:49:45;6.50;99.90
21115;DHT22;10715;48.546;9.896;2022-10-17T02:55:16;6.50;99.90
21115;DHT22;10715;48.546;9.896;2022-10-17T02:58:13;6.50;99.90
21115;DHT22;10715;48.546;9.896;2022-10-17T03:00:41;6.40;99.90
21115;DHT22;10715;48.546;9.896;2022-10-17T03:03:26;6.40;99.90
21115;DHT22;10715;48.546;9.896;2022-10-17T03:05:52;6.30;99.90
21115;DHT22;10715;48.546;9.896;2022-10-17T03:08:19;6.30;99.90
21115;DHT22;10715;48.546;9.896;2022-10-17T03:10:45;6.30;99.90
21115;DHT22;10715;48.546;9.896;2022-10-17T03:13:10;6.30;99.90
21115;DHT22;10715;48.546;9.896;2022-10-17T03:15:36;6.20;99.90
21115;DHT22;10715;48.546;9.896;2022-10-17T03:18:02;6.20;99.90
21115;DHT22;10715;48.546;9.896;2022-10-17T03:20:28;6.20;99.90
21115;DHT22;10715;48.546;9.896;2022-10-17T03:22:54;6.30;99.90
21115;DHT22;10715;48.546;9.896;2022-10-17T03:25:19;6.20;99.90
21115;DHT22;10715;48.546;9.896;2022-10-17T03:27:45;6.30;99.90
21115;DHT22;10715;48.546;9.896;2022-10-17T03:30:11;6.30;99.90
21115;DHT22;10715;48.546;9.896;2022-10-17T03:32:36;6.20;99.90
21115;DHT22;10715;48.546;9.896;2022-10-17T03:35:02;6.20;99.90
21115;DHT22;10715;48.546;9.896;2022-10-17T03:37:28;6.20;99.90
21115;DHT22;10715;48.546;9.896;2022-10-17T03:39:54;6.10;99.90
21115;DHT22;10715;48.546;9.896;2022-10-17T03:42:19;6.10;99.90
21115;DHT22;10715;48.546;9.896;2022-10-17T03:44:45;6.10;99.90
21115;DHT22;10715;48.546;9.896;2022-10-17T03:47:11;6.10;99.90
21115;DHT22;10715;48.546;9.896;2022-10-17T03:49:36;6.00;99.90
21115;DHT22;10715;48.546;9.896;2022-10-17T03:52:02;6.00;99.90
21115;DHT22;10715;48.546;9.896;2022-10-17T03:54:28;6.00;99.90
21115;DHT22;10715;48.546;9.896;2022-10-17T03:56:54;5.90;99.90
21115;DHT22;10715;48.546;9.896;2022-10-17T03:59:19;5.90;99.90
21115;DHT22;10715;48.546;9.896;2022-10-17T04:01:45;5.80;99.90
21115;DHT22;10715;48.546;9.896;2022-10-17T04:04:11;5.80;99.90
21115;DHT22;10715;48.546;9.896;2022-10-17T04:06:37;5.80;99.90
21115;DHT22;10715;48.546;9.896;2022-10-17T04:09:03;5.80;99.90
21115;DHT22;10715;48.546;9.896;2022-10-17T04:11:29;5.80;99.90
21115;DHT22;10715;48.546;9.896;2022-10-17T04:13:56;5.90;99.90
21115;DHT22;10715;48.546;9.896;2022-10-17T04:16:24;5.80;99.90
21115;DHT22;10715;48.546;9.896;2022-10-17T04:18:54;5.90;99.90
21115;DHT22;10715;48.546;9.896;2022-10-17T04:21:21;5.90;99.90
21115;DHT22;10715;48.546;9.896;2022-10-17T04:23:47;5.90;99.90
21115;DHT22;10715;48.546;9.896;2022-10-17T04:26:16;5.90;99.90
21115;DHT22;10715;48.546;9.896;2022-10-17T04:28:42;5.90;99.90
21115;DHT22;10715;48.546;9.896;2022-10-17T04:31:11;5.90;99.90
21115;DHT22;10715;48.546;9.896;2022-10-17T04:33:38;5.90;99.90
21115;DHT22;10715;48.546;9.896;2022-10-17T04:36:07;5.90;99.90
21115;DHT22;10715;48.546;9.896;2022-10-17T04:38:33;5.80;99.90
21115;DHT22;10715;48.546;9.896;2022-10-17T04:41:00;5.80;99.90
21115;DHT22;10715;48.546;9.896;2022-10-17T04:43:31;5.80;99.90
21115;DHT22;10715;48.546;9.896;2022-10-17T04:45:58;5.80;99.90
21115;DHT22;10715;48.546;9.896;2022-10-17T04:48:24;5.80;99.90
21115;DHT22;10715;48.546;9.896;2022-10-17T04:51:01;5.80;99.90
21115;DHT22;10715;48.546;9.896;2022-10-17T04:53:30;5.70;99.90
21115;DHT22;10715;48.546;9.896;2022-10-17T04:55:56;5.70;99.90
21115;DHT22;10715;48.546;9.896;2022-10-17T04:58:22;5.70;99.90
21115;DHT22;10715;48.546;9.896;2022-10-17T05:00:47;5.70;99.90
21115;DHT22;10715;48.546;9.896;2022-10-17T05:03:13;5.60;99.90
21115;DHT22;10715;48.546;9.896;2022-10-17T05:05:40;5.60;99.90
21115;DHT22;10715;48.546;9.896;2022-10-17T05:08:07;5.60;99.90
21115;DHT22;10715;48.546;9.896;2022-10-17T05:10:37;5.60;99.90
21115;DHT22;10715;48.546;9.896;2022-10-17T05:13:04;5.60;99.90
21115;DHT22;10715;48.546;9.896;2022-10-17T05:15:31;5.60;99.90
21115;DHT22;10715;48.546;9.896;2022-10-17T05:17:57;5.60;99.90
21115;DHT22;10715;48.546;9.896;2022-10-17T05:20:23;5.60;99.90
21115;DHT22;10715;48.546;9.896;2022-10-17T05:22:49;5.60;99.90
21115;DHT22;10715;48.546;9.896;2022-10-17T05:25:15;5.60;99.90
21115;DHT22;10715;48.546;9.896;2022-10-17T05:27:41;5.60;99.90
21115;DHT22;10715;48.546;9.896;2022-10-17T05:30:07;5.60;99.90
21115;DHT22;10715;48.546;9.896;2022-10-17T05:32:33;5.60;99.90
21115;DHT22;10715;48.546;9.896;2022-10-17T05:34:58;5.50;99.90
21115;DHT22;10715;48.546;9.896;2022-10-17T05:37:24;5.60;99.90
21115;DHT22;10715;48.546;9.896;2022-10-17T05:39:50;5.60;99.90
21115;DHT22;10715;48.546;9.896;2022-10-17T05:42:16;5.60;99.90
21115;DHT22;10715;48.546;9.896;2022-10-17T05:44:41;5.60;99.90
21115;DHT22;10715;48.546;9.896;2022-10-17T05:47:07;5.50;99.90
21115;DHT22;10715;48.546;9.896;2022-10-17T05:49:33;5.50;99.90
21115;DHT22;10715;48.546;9.896;2022-10-17T05:51:59;5.60;99.90
21115;DHT22;10715;48.546;9.896;2022-10-17T05:54:25;5.60;99.90
21115;DHT22;10715;48.546;9.896;2022-10-17T05:56:52;5.60;99.90
21115;DHT22;10715;48.546;9.896;2022-10-17T05:59:18;5.50;99.90
21115;DHT22;10715;48.546;9.896;2022-10-17T06:01:44;5.50;99.90
21115;DHT22;10715;48.546;9.896;2022-10-17T06:04:09;5.50;99.90
21115;DHT22;10715;48.546;9.896;2022-10-17T06:06:36;5.60;99.90
21115;DHT22;10715;48.546;9.896;2022-10-17T06:09:03;5.60;99.90
21115;DHT22;10715;48.546;9.896;2022-10-17T06:11:29;5.60;99.90
21115;DHT22;10715;48.546;9.896;2022-10-17T06:13:55;5.60;99.90
21115;DHT22;10715;48.546;9.896;2022-10-17T06:16:21;5.70;99.90
21115;DHT22;10715;48.546;9.896;2022-10-17T06:18:47;5.70;99.90
21115;DHT22;10715;48.546;9.896;2022-10-17T06:21:14;5.70;99.90
21115;DHT22;10715;48.546;9.896;2022-10-17T06:23:41;5.80;99.90
21115;DHT22;10715;48.546;9.896;2022-10-17T06:26:08;5.80;99.90
21115;DHT22;10715;48.546;9.896;2022-10-17T06:28:34;5.90;99.90
21115;DHT22;10715;48.546;9.896;2022-10-17T06:31:08;5.90;99.90
21115;DHT22;10715;48.546;9.896;2022-10-17T06:33:34;6.00;99.90
21115;DHT22;10715;48.546;9.896;2022-10-17T06:36:00;6.00;99.90
21115;DHT22;10715;48.546;9.896;2022-10-17T06:38:26;6.10;99.90
21115;DHT22;10715;48.546;9.896;2022-10-17T06:40:52;6.10;99.90
21115;DHT22;10715;48.546;9.896;2022-10-17T06:43:19;6.20;99.90
21115;DHT22;10715;48.546;9.896;2022-10-17T06:45:45;6.20;99.90
21115;DHT22;10715;48.546;9.896;2022-10-17T06:48:11;6.30;99.90
21115;DHT22;10715;48.546;9.896;2022-10-17T06:50:37;6.30;99.90
21115;DHT22;10715;48.546;9.896;2022-10-17T06:53:03;6.40;99.90
21115;DHT22;10715;48.546;9.896;2022-10-17T06:55:30;6.50;99.90
21115;DHT22;10715;48.546;9.896;2022-10-17T06:57:56;6.50;99.90
21115;DHT22;10715;48.546;9.896;2022-10-17T07:00:22;6.60;99.90
21115;DHT22;10715;48.546;9.896;2022-10-17T07:02:48;6.60;99.90
21115;DHT22;10715;48.546;9.896;2022-10-17T07:05:14;6.70;99.90
21115;DHT22;10715;48.546;9.896;2022-10-17T07:07:40;6.70;99.90
21115;DHT22;10715;48.546;9.896;2022-10-17T07:10:06;6.80;99.90
21115;DHT22;10715;48.546;9.896;2022-10-17T07:12:35;6.90;99.90
21115;DHT22;10715;48.546;9.896;2022-10-17T07:15:01;6.90;99.90
21115;DHT22;10715;48.546;9.896;2022-10-17T07:17:29;7.00;99.90
21115;DHT22;10715;48.546;9.896;2022-10-17T07:19:54;7.10;99.90
21115;DHT22;10715;48.546;9.896;2022-10-17T07:22:20;7.20;99.90
21115;DHT22;10715;48.546;9.896;2022-10-17T07:24:46;7.30;99.90
21115;DHT22;10715;48.546;9.896;2022-10-17T07:27:12;7.30;99.90
21115;DHT22;10715;48.546;9.896;2022-10-17T07:29:38;7.40;99.90
21115;DHT22;10715;48.546;9.896;2022-10-17T07:32:04;7.50;99.90
21115;DHT22;10715;48.546;9.896;2022-10-17T07:34:33;7.60;99.90
21115;DHT22;10715;48.546;9.896;2022-10-17T07:36:59;7.70;99.90
21115;DHT22;10715;48.546;9.896;2022-10-17T07:39:25;7.80;99.90
21115;DHT22;10715;48.546;9.896;2022-10-17T07:41:51;7.90;99.90
21115;DHT22;10715;48.546;9.896;2022-10-17T07:44:16;8.00;99.90
21115;DHT22;10715;48.546;9.896;2022-10-17T07:46:42;8.20;99.90
21115;DHT22;10715;48.546;9.896;2022-10-17T07:49:08;8.40;99.90
21115;DHT22;10715;48.546;9.896;2022-10-17T07:51:34;8.50;99.90
21115;DHT22;10715;48.546;9.896;2022-10-17T07:53:59;8.80;99.90
21115;DHT22;10715;48.546;9.896;2022-10-17T07:56:25;8.90;99.90
21115;DHT22;10715;48.546;9.896;2022-10-17T07:58:51;9.10;99.90
21115;DHT22;10715;48.546;9.896;2022-10-17T08:01:18;9.20;99.90
21115;DHT22;10715;48.546;9.896;2022-10-17T08:03:44;9.40;99.90
21115;DHT22;10715;48.546;9.896;2022-10-17T08:06:11;9.60;99.90
21115;DHT22;10715;48.546;9.896;2022-10-17T08:08:37;9.90;99.90
21115;DHT22;10715;48.546;9.896;2022-10-17T08:11:05;10.00;99.90
21115;DHT22;10715;48.546;9.896;2022-10-17T08:13:32;10.10;99.90
21115;DHT22;10715;48.546;9.896;2022-10-17T08:16:03;10.40;99.90
21115;DHT22;10715;48.546;9.896;2022-10-17T08:18:29;10.50;99.90
21115;DHT22;10715;48.546;9.896;2022-10-17T08:20:59;10.70;99.90
21115;DHT22;10715;48.546;9.896;2022-10-17T08:23:25;10.90;99.90
21115;DHT22;10715;48.546;9.896;2022-10-17T08:25:50;11.10;99.90
21115;DHT22;10715;48.546;9.896;2022-10-17T08:28:16;11.30;99.90
21115;DHT22;10715;48.546;9.896;2022-10-17T08:30:42;11.40;99.90
21115;DHT22;10715;48.546;9.896;2022-10-17T08:33:08;11.50;99.90
21115;DHT22;10715;48.546;9.896;2022-10-17T08:35:33;11.70;99.90
21115;DHT22;10715;48.546;9.896;2022-10-17T08:37:59;11.80;99.90
21115;DHT22;10715;48.546;9.896;2022-10-17T08:40:30;12.00;99.90
21115;DHT22;10715;48.546;9.896;2022-10-17T08:45:46;12.30;99.90
21115;DHT22;10715;48.546;9.896;2022-10-17T08:48:16;12.50;99.90
21115;DHT22;10715;48.546;9.896;2022-10-17T08:55:46;13.20;99.90
21115;DHT22;10715;48.546;9.896;2022-10-17T08:58:31;13.50;99.90
21115;DHT22;10715;48.546;9.896;2022-10-17T09:06:24;14.40;99.90
21115;DHT22;10715;48.546;9.896;2022-10-17T09:20:17;17.40;99.90
21115;DHT22;10715;48.546;9.896;2022-10-17T09:25:41;22.20;99.90
21115;DHT22;10715;48.546;9.896;2022-10-17T09:28:24;24.50;99.90
21115;DHT22;10715;48.546;9.896;2022-10-17T09:31:04;25.50;99.90
21115;DHT22;10715;48.546;9.896;2022-10-17T09:33:48;26.00;99.90
21115;DHT22;10715;48.546;9.896;2022-10-17T09:36:33;26.40;99.90
21115;DHT22;10715;48.546;9.896;2022-10-17T09:39:05;26.70;99.90
21115;DHT22;10715;48.546;9.896;2022-10-17T09:41:43;26.80;99.90
21115;DHT22;10715;48.546;9.896;2022-10-17T09:49:54;28.60;99.90
21115;DHT22;10715;48.546;9.896;2022-10-17T09:52:33;29.00;98.30
21115;DHT22;10715;48.546;9.896;2022-10-17T09:55:16;29.40;96.30
21115;DHT22;10715;48.546;9.896;2022-10-17T09:57:55;30.00;94.70
21115;DHT22;10715;48.546;9.896;2022-10-17T10:00:25;30.90;92.40
21115;DHT22;10715;48.546;9.896;2022-10-17T10:03:17;31.10;90.70
21115;DHT22;10715;48.546;9.896;2022-10-17T10:06:05;31.70;87.50
21115;DHT22;10715;48.546;9.896;2022-10-17T10:11:17;29.60;91.20
21115;DHT22;10715;48.546;9.896;2022-10-17T10:13:45;27.70;94.10
21115;DHT22;10715;48.546;9.896;2022-10-17T10:16:28;26.20;97.10
21115;DHT22;10715;48.546;9.896;2022-10-17T10:18:54;24.80;99.90
21115;DHT22;10715;48.546;9.896;2022-10-17T10:21:22;23.60;99.90
21115;DHT22;10715;48.546;9.896;2022-10-17T10:24:24;22.70;99.90
21115;DHT22;10715;48.546;9.896;2022-10-17T10:26:51;22.00;99.90
21115;DHT22;10715;48.546;9.896;2022-10-17T10:29:31;21.60;99.90
21115;DHT22;10715;48.546;9.896;2022-10-17T10:32:11;21.30;99.90
21115;DHT22;10715;48.546;9.896;2022-10-17T10:37:33;21.20;99.90
21115;DHT22;10715;48.546;9.896;2022-10-17T10:40:28;21.20;99.90
21115;DHT22;10715;48.546;9.896;2022-10-17T10:42:57;21.10;99.90
21115;DHT22;10715;48.546;9.896;2022-10-17T10:45:25;21.30;99.90
21115;DHT22;10715;48.546;9.896;2022-10-17T10:47:56;21.50;99.90
21115;DHT22;10715;48.546;9.896;2022-10-17T10:56:17;22.10;99.90
21115;DHT22;10715;48.546;9.896;2022-10-17T10:58:58;23.60;99.90
21115;DHT22;10715;48.546;9.896;2022-10-17T11:04:46;26.90;99.90
21115;DHT22;10715;48.546;9.896;2022-10-17T11:07:23;28.70;99.20
21115;DHT22;10715;48.546;9.896;2022-10-17T11:15:36;32.80;84.20
21115;DHT22;10715;48.546;9.896;2022-10-17T11:27:06;30.30;84.80
21115;DHT22;10715;48.546;9.896;2022-10-17T11:29:34;28.00;91.70
21115;DHT22;10715;48.546;9.896;2022-10-17T11:32:25;26.10;95.10
21115;DHT22;10715;48.546;9.896;2022-10-17T11:34:59;24.50;99.70
21115;DHT22;10715;48.546;9.896;2022-10-17T11:37:30;23.20;99.90
21115;DHT22;10715;48.546;9.896;2022-10-17T11:40:08;22.40;99.90
21115;DHT22;10715;48.546;9.896;2022-10-17T11:42:41;21.80;99.90
21115;DHT22;10715;48.546;9.896;2022-10-17T11:45:14;21.40;99.90
21115;DHT22;10715;48.546;9.896;2022-10-17T11:50:23;21.00;99.90
21115;DHT22;10715;48.546;9.896;2022-10-17T11:53:13;20.90;99.90
21115;DHT22;10715;48.546;9.896;2022-10-17T11:55:41;20.80;99.90
21115;DHT22;10715;48.546;9.896;2022-10-17T12:08:59;20.80;99.90
21115;DHT22;10715;48.546;9.896;2022-10-17T12:11:50;20.80;99.90
21115;DHT22;10715;48.546;9.896;2022-10-17T12:14:44;20.80;99.90
21115;DHT22;10715;48.546;9.896;2022-10-17T12:20:23;20.70;99.90
21115;DHT22;10715;48.546;9.896;2022-10-17T12:22:54;20.80;99.90
21115;DHT22;10715;48.546;9.896;2022-10-17T12:25:27;21.00;99.90
21115;DHT22;10715;48.546;9.896;2022-10-17T12:28:22;21.00;99.90
21115;DHT22;10715;48.546;9.896;2022-10-17T12:30:58;21.10;99.90
21115;DHT22;10715;48.546;9.896;2022-10-17T12:33:36;21.10;99.90
21115;DHT22;10715;48.546;9.896;2022-10-17T12:38:47;21.30;99.90
21115;DHT22;10715;48.546;9.896;2022-10-17T12:41:13;21.40;99.90
21115;DHT22;10715;48.546;9.896;2022-10-17T12:43:52;21.50;99.90
21115;DHT22;10715;48.546;9.896;2022-10-17T12:49:43;21.60;99.90
21115;DHT22;10715;48.546;9.896;2022-10-17T12:57:39;21.70;99.90
21115;DHT22;10715;48.546;9.896;2022-10-17T13:02:54;21.80;99.90
21115;DHT22;10715;48.546;9.896;2022-10-17T13:05:30;21.80;99.90
21115;DHT22;10715;48.546;9.896;2022-10-17T13:07:59;21.90;99.90
21115;DHT22;10715;48.546;9.896;2022-10-17T13:10:28;21.90;99.90
21115;DHT22;10715;48.546;9.896;2022-10-17T13:15:52;21.90;99.90
21115;DHT22;10715;48.546;9.896;2022-10-17T13:18:24;21.80;99.90
21115;DHT22;10715;48.546;9.896;2022-10-17T13:21:04;21.80;99.90
21115;DHT22;10715;48.546;9.896;2022-10-17T13:23:35;21.70;99.90
21115;DHT22;10715;48.546;9.896;2022-10-17T13:26:15;21.80;99.90
21115;DHT22;10715;48.546;9.896;2022-10-17T13:28:42;21.80;99.90
21115;DHT22;10715;48.546;9.896;2022-10-17T13:31:30;21.90;99.90
21115;DHT22;10715;48.546;9.896;2022-10-17T13:33:58;22.00;99.90
21115;DHT22;10715;48.546;9.896;2022-10-17T13:36:24;22.10;99.90
21115;DHT22;10715;48.546;9.896;2022-10-17T13:38:50;22.10;99.90
21115;DHT22;10715;48.546;9.896;2022-10-17T13:41:21;22.10;99.90
21115;DHT22;10715;48.546;9.896;2022-10-17T13:43:49;22.10;99.90
21115;DHT22;10715;48.546;9.896;2022-10-17T13:46:25;22.10;99.90
21115;DHT22;10715;48.546;9.896;2022-10-17T13:48:51;22.10;99.90
21115;DHT22;10715;48.546;9.896;2022-10-17T13:51:17;22.00;99.90
21115;DHT22;10715;48.546;9.896;2022-10-17T13:53:43;21.90;99.90
21115;DHT22;10715;48.546;9.896;2022-10-17T13:58:45;21.70;99.90
21115;DHT22;10715;48.546;9.896;2022-10-17T14:01:11;21.70;99.90
21115;DHT22;10715;48.546;9.896;2022-10-17T14:03:40;21.60;99.90
21115;DHT22;10715;48.546;9.896;2022-10-17T14:08:39;21.60;99.90
21115;DHT22;10715;48.546;9.896;2022-10-17T14:13:56;21.70;99.90
21115;DHT22;10715;48.546;9.896;2022-10-17T14:16:23;21.60;99.90
21115;DHT22;10715;48.546;9.896;2022-10-17T14:18:50;21.60;99.90
21115;DHT22;10715;48.546;9.896;2022-10-17T14:21:22;21.50;99.90
21115;DHT22;10715;48.546;9.896;2022-10-17T14:23:49;21.40;99.90
21115;DHT22;10715;48.546;9.896;2022-10-17T14:26:18;21.30;99.90
21115;DHT22;10715;48.546;9.896;2022-10-17T14:28:48;21.20;99.90
21115;DHT22;10715;48.546;9.896;2022-10-17T14:31:22;21.20;99.90
21115;DHT22;10715;48.546;9.896;2022-10-17T14:33:50;21.10;99.90
21115;DHT22;10715;48.546;9.896;2022-10-17T14:36:18;21.00;99.90
21115;DHT22;10715;48.546;9.896;2022-10-17T14:38:47;21.00;99.90
21115;DHT22;10715;48.546;9.896;2022-10-17T14:43:51;20.90;99.90
21115;DHT22;10715;48.546;9.896;2022-10-17T14:46:17;20.90;99.90
21115;DHT22;10715;48.546;9.896;2022-10-17T14:48:43;20.80;99.90
21115;DHT22;10715;48.546;9.896;2022-10-17T14:51:10;20.70;99.90
21115;DHT22;10715;48.546;9.896;2022-10-17T14:53:36;20.60;99.90
21115;DHT22;10715;48.546;9.896;2022-10-17T14:56:17;20.50;99.90
21115;DHT22;10715;48.546;9.896;2022-10-17T14:58:44;20.30;99.90
21115;DHT22;10715;48.546;9.896;2022-10-17T15:01:10;20.20;99.90
21115;DHT22;10715;48.546;9.896;2022-10-17T15:03:36;20.10;99.90
21115;DHT22;10715;48.546;9.896;2022-10-17T15:06:18;19.90;99.90
21115;DHT22;10715;48.546;9.896;2022-10-17T15:08:43;19.80;99.90
21115;DHT22;10715;48.546;9.896;2022-10-17T15:11:11;19.70;99.90
21115;DHT22;10715;48.546;9.896;2022-10-17T15:13:36;19.50;99.90
21115;DHT22;10715;48.546;9.896;2022-10-17T15:16:11;19.40;99.90
21115;DHT22;10715;48.546;9.896;2022-10-17T15:18:38;19.30;99.90
21115;DHT22;10715;48.546;9.896;2022-10-17T15:21:10;19.10;99.90
21115;DHT22;10715;48.546;9.896;2022-10-17T15:23:37;19.00;99.90
21115;DHT22;10715;48.546;9.896;2022-10-17T15:26:05;18.80;99.90
21115;DHT22;10715;48.546;9.896;2022-10-17T15:28:33;18.60;99.90
21115;DHT22;10715;48.546;9.896;2022-10-17T15:30:59;18.50;99.90
21115;DHT22;10715;48.546;9.896;2022-10-17T15:33:25;18.30;99.90
21115;DHT22;10715;48.546;9.896;2022-10-17T15:35:51;18.10;99.90
21115;DHT22;10715;48.546;9.896;2022-10-17T15:38:17;17.90;99.90
21115;DHT22;10715;48.546;9.896;2022-10-17T15:40:42;17.80;99.90
21115;DHT22;10715;48.546;9.896;2022-10-17T15:43:08;17.60;99.90
21115;DHT22;10715;48.546;9.896;2022-10-17T15:45:34;17.50;99.90
21115;DHT22;10715;48.546;9.896;2022-10-17T15:48:04;17.40;99.90
21115;DHT22;10715;48.546;9.896;2022-10-17T15:50:30;17.20;99.90
21115;DHT22;10715;48.546;9.896;2022-10-17T15:52:55;17.10;99.90
21115;DHT22;10715;48.546;9.896;2022-10-17T15:55:21;17.00;99.90
21115;DHT22;10715;48.546;9.896;2022-10-17T15:57:48;16.90;99.90
21115;DHT22;10715;48.546;9.896;2022-10-17T16:00:20;16.70;99.90
21115;DHT22;10715;48.546;9.896;2022-10-17T16:02:46;16.60;99.90
21115;DHT22;10715;48.546;9.896;2022-10-17T16:05:22;16.40;99.90
21115;DHT22;10715;48.546;9.896;2022-10-17T16:07:48;16.30;99.90
21115;DHT22;10715;48.546;9.896;2022-10-17T16:10:15;16.20;99.90
21115;DHT22;10715;48.546;9.896;2022-10-17T16:12:41;16.10;99.90
21115;DHT22;10715;48.546;9.896;2022-10-17T16:15:13;16.00;99.90
21115;DHT22;10715;48.546;9.896;2022-10-17T16:17:40;15.90;99.90
21115;DHT22;10715;48.546;9.896;2022-10-17T16:20:06;15.80;99.90
21115;DHT22;10715;48.546;9.896;2022-10-17T16:22:33;15.80;99.90
21115;DHT22;10715;48.546;9.896;2022-10-17T16:25:05;15.70;99.90
21115;DHT22;10715;48.546;9.896;2022-10-17T16:27:35;15.60;99.90
21115;DHT22;10715;48.546;9.896;2022-10-17T16:30:04;15.50;99.90
21115;DHT22;10715;48.546;9.896;2022-10-17T16:32:30;15.40;99.90
21115;DHT22;10715;48.546;9.896;2022-10-17T16:34:56;15.30;99.90
21115;DHT22;10715;48.546;9.896;2022-10-17T16:37:24;15.20;99.90
21115;DHT22;10715;48.546;9.896;2022-10-17T16:39:50;15.10;99.90
21115;DHT22;10715;48.546;9.896;2022-10-17T16:42:19;15.10;99.90
21115;DHT22;10715;48.546;9.896;2022-10-17T16:44:45;15.10;99.90
21115;DHT22;10715;48.546;9.896;2022-10-17T16:47:11;15.00;99.90
21115;DHT22;10715;48.546;9.896;2022-10-17T16:49:37;14.90;99.90
21115;DHT22;10715;48.546;9.896;2022-10-17T16:52:03;14.80;99.90
21115;DHT22;10715;48.546;9.896;2022-10-17T16:54:29;14.70;99.90
21115;DHT22;10715;48.546;9.896;2022-10-17T16:56:55;14.60;99.90
21115;DHT22;10715;48.546;9.896;2022-10-17T16:59:24;14.50;99.90
21115;DHT22;10715;48.546;9.896;2022-10-17T17:01:50;14.40;99.90
21115;DHT22;10715;48.546;9.896;2022-10-17T17:04:16;14.30;99.90
21115;DHT22;10715;48.546;9.896;2022-10-17T17:06:41;14.20;99.90
21115;DHT22;10715;48.546;9.896;2022-10-17T17:09:07;14.10;99.90
21115;DHT22;10715;48.546;9.896;2022-10-17T17:11:34;14.00;99.90
21115;DHT22;10715;48.546;9.896;2022-10-17T17:14:02;13.90;99.90
21115;DHT22;10715;48.546;9.896;2022-10-17T17:16:30;13.90;99.90
21115;DHT22;10715;48.546;9.896;2022-10-17T17:19:02;13.80;99.90
21115;DHT22;10715;48.546;9.896;2022-10-17T17:21:29;13.80;99.90
21115;DHT22;10715;48.546;9.896;2022-10-17T17:23:57;13.70;99.90
21115;DHT22;10715;48.546;9.896;2022-10-17T17:26:25;13.60;99.90
21115;DHT22;10715;48.546;9.896;2022-10-17T17:28:51;13.60;99.90
21115;DHT22;10715;48.546;9.896;2022-10-17T17:31:22;13.50;99.90
21115;DHT22;10715;48.546;9.896;2022-10-17T17:33:49;13.40;99.90
21115;DHT22;10715;48.546;9.896;2022-10-17T17:36:18;13.40;99.90
21115;DHT22;10715;48.546;9.896;2022-10-17T17:38:45;13.30;99.90
21115;DHT22;10715;48.546;9.896;2022-10-17T17:41:12;13.30;99.90
21115;DHT22;10715;48.546;9.896;2022-10-17T17:43:39;13.20;99.90
21115;DHT22;10715;48.546;9.896;2022-10-17T17:46:05;13.10;99.90
21115;DHT22;10715;48.546;9.896;2022-10-17T17:48:31;13.00;99.90
21115;DHT22;10715;48.546;9.896;2022-10-17T17:50:57;12.90;99.90
21115;DHT22;10715;48.546;9.896;2022-10-17T17:53:27;12.90;99.90
21115;DHT22;10715;48.546;9.896;2022-10-17T17:56:04;12.80;99.90
21115;DHT22;10715;48.546;9.896;2022-10-17T17:58:30;12.70;99.90
21115;DHT22;10715;48.546;9.896;2022-10-17T18:00:56;12.60;99.90
21115;DHT22;10715;48.546;9.896;2022-10-17T18:03:23;12.50;99.90
21115;DHT22;10715;48.546;9.896;2022-10-17T18:05:49;12.40;99.90
21115;DHT22;10715;48.546;9.896;2022-10-17T18:08:14;12.30;99.90
21115;DHT22;10715;48.546;9.896;2022-10-17T18:10:40;12.10;99.90
21115;DHT22;10715;48.546;9.896;2022-10-17T18:13:06;12.10;99.90
21115;DHT22;10715;48.546;9.896;2022-10-17T18:15:31;12.10;99.90
21115;DHT22;10715;48.546;9.896;2022-10-17T18:17:57;12.00;99.90
21115;DHT22;10715;48.546;9.896;2022-10-17T18:20:23;12.00;99.90